Time;durP1;ratioP1;P1;durP2;ratioP2;P2;SDS_P1;SDS_P2;PMS_P1;PMS_P2;Temp;Humidity;BMP_temperature;BMP_pressure;BME280_temperature;BME280_humidity;BME280_pressure;Samples;Min_cycle;Max_cycle;Signal;HPM_P1;HPM_P2
2021/01/01 00:00:49;;;;;;;79.82;38.70;;;;;;;0.50;84.10;97243.53;1784801;79;21248;-73
2021/01/01 00:03:16;;;;;;;67.27;34.08;;;;;;;0.60;84.13;97243.46;1784792;79;21570;-73
2021/01/01 00:05:43;;;;;;;68.57;29.63;;;;;;;0.62;83.97;97248.87;1784836;79;21594;-73
2021/01/01 00:08:10;;;;;;;70.72;34.33;;;;;;;0.60;83.75;97254.97;1784873;80;21154;-73
2021/01/01 00:10:36;;;;;;;81.10;40.45;;;;;;;0.57;84.07;97254.08;1784907;79;21459;-73
2021/01/01 00:13:02;;;;;;;67.78;31.05;;;;;;;0.54;84.01;97246.04;1784870;80;21618;-73
2021/01/01 00:15:29;;;;;;;62.93;33.20;;;;;;;0.54;83.55;97248.70;1784798;79;21066;-73
2021/01/01 00:17:55;;;;;;;65.87;33.33;;;;;;;0.57;83.78;97247.41;1784902;80;21181;-73
2021/01/01 00:20:22;;;;;;;81.05;36.40;;;;;;;0.60;83.69;97245.63;1784842;79;21217;-73
2021/01/01 00:22:48;;;;;;;60.67;31.33;;;;;;;0.58;83.90;97251.70;1784942;79;21198;-73
2021/01/01 00:25:14;;;;;;;72.75;36.13;;;;;;;0.61;83.74;97250.44;1784830;79;21456;-73
2021/01/01 00:27:40;;;;;;;82.90;38.92;;;;;;;0.58;83.75;97249.56;1784830;80;21633;-73
2021/01/01 00:30:08;;;;;;;67.62;33.88;;;;;;;0.51;83.64;97251.84;1784861;79;21023;-74
2021/01/01 00:32:34;;;;;;;67.67;34.53;;;;;;;0.52;83.75;97249.47;1784933;79;21090;-73
2021/01/01 00:35:01;;;;;;;63.68;30.17;;;;;;;0.51;83.81;97248.34;1784838;79;21534;-73
2021/01/01 00:37:27;;;;;;;70.28;31.95;;;;;;;0.47;83.81;97249.34;1784878;80;21317;-73
2021/01/01 00:39:53;;;;;;;86.50;39.50;;;;;;;0.43;83.75;97246.06;1784849;80;21114;-74
2021/01/01 00:42:20;;;;;;;66.70;31.93;;;;;;;0.38;83.75;97248.61;1784826;79;21157;-73
2021/01/01 00:44:46;;;;;;;59.60;30.02;;;;;;;0.36;83.72;97247.52;1784862;80;21590;-73
2021/01/01 00:47:13;;;;;;;53.63;25.55;;;;;;;0.33;83.63;97248.48;1784934;79;21110;-73
2021/01/01 00:49:39;;;;;;;52.20;27.93;;;;;;;0.34;83.67;97252.77;1784824;80;21459;-73
2021/01/01 00:52:05;;;;;;;54.98;25.08;;;;;;;0.27;83.73;97251.58;1784782;79;21070;-73
2021/01/01 00:54:32;;;;;;;57.67;28.17;;;;;;;0.30;83.91;97257.77;1784910;80;21119;-73
2021/01/01 00:56:58;;;;;;;67.40;32.83;;;;;;;0.32;83.69;97256.19;1784853;79;21468;-73
2021/01/01 00:59:25;;;;;;;58.15;28.50;;;;;;;0.27;83.74;97254.23;1784760;80;21459;-73
2021/01/01 01:01:51;;;;;;;48.42;23.85;;;;;;;0.22;83.78;97253.59;1784921;79;22076;-73
2021/01/01 01:04:17;;;;;;;60.60;28.47;;;;;;;0.25;83.50;97258.45;1784755;80;21063;-73
2021/01/01 01:06:44;;;;;;;47.33;25.30;;;;;;;0.19;83.73;97259.39;1784885;79;21122;-73
2021/01/01 01:09:10;;;;;;;74.17;28.60;;;;;;;0.21;83.48;97253.83;1784826;80;21641;-73
2021/01/01 01:11:36;;;;;;;58.92;27.37;;;;;;;0.25;83.70;97257.63;1784853;79;21038;-73
2021/01/01 01:14:03;;;;;;;47.93;23.25;;;;;;;0.23;83.73;97261.88;1784810;80;22188;-73
2021/01/01 01:16:31;;;;;;;56.08;26.25;;;;;;;0.24;83.65;97258.16;1784784;79;21050;-73
2021/01/01 01:18:57;;;;;;;57.30;27.90;;;;;;;0.18;83.64;97260.97;1784722;80;21535;-73
2021/01/01 01:21:23;;;;;;;52.25;27.67;;;;;;;0.18;83.51;97263.63;1784975;79;21126;-73
2021/01/01 01:23:51;;;;;;;57.40;30.25;;;;;;;0.16;83.56;97261.69;1784975;79;21201;-73
2021/01/01 01:26:18;;;;;;;59.35;27.10;;;;;;;0.18;83.80;97260.97;1784761;79;21491;-73
2021/01/01 01:28:44;;;;;;;54.03;25.15;;;;;;;0.23;83.89;97271.20;1784801;80;21173;-73
2021/01/01 01:31:10;;;;;;;52.40;23.47;;;;;;;0.28;83.61;97267.33;1784842;79;21106;-73
2021/01/01 01:33:37;;;;;;;59.35;28.65;;;;;;;0.23;83.57;97266.39;1784934;80;21206;-73
2021/01/01 01:36:03;;;;;;;55.70;26.48;;;;;;;0.18;83.62;97268.44;1784905;79;21106;-73
2021/01/01 01:38:30;;;;;;;60.75;26.73;;;;;;;0.21;83.66;97276.48;1784805;80;21256;-73
2021/01/01 01:40:56;;;;;;;55.92;28.07;;;;;;;0.18;83.61;97266.29;1784812;79;21035;-73
2021/01/01 01:43:23;;;;;;;54.88;27.05;;;;;;;0.14;83.62;97270.45;1784816;80;21598;-73
2021/01/01 01:45:49;;;;;;;45.95;22.85;;;;;;;0.14;83.58;97271.78;1784860;79;21114;-73
2021/01/01 01:48:20;;;;;;;47.65;22.45;;;;;;;0.16;83.50;97276.34;1784843;80;21210;-73
2021/01/01 01:50:47;;;;;;;55.52;25.57;;;;;;;0.13;83.57;97278.96;1784389;79;21196;-73
2021/01/01 01:53:13;;;;;;;56.88;26.33;;;;;;;0.14;83.51;97272.59;1784828;80;21145;-73
2021/01/01 01:55:40;;;;;;;59.77;29.95;;;;;;;0.12;83.61;97269.88;1784763;79;21555;-73
2021/01/01 01:58:06;;;;;;;59.05;30.20;;;;;;;0.14;83.62;97275.77;1784807;80;21197;-73
2021/01/01 02:02:59;;;;;;;55.55;26.25;;;;;;;0.17;83.49;97275.30;1784937;80;22153;-73
2021/01/01 02:05:27;;;;;;;57.80;23.73;;;;;;;0.18;83.13;97272.43;1784813;79;21052;-73
2021/01/01 02:07:54;;;;;;;59.23;30.40;;;;;;;0.17;83.06;97273.48;1754671;80;21578;-73
2021/01/01 02:10:20;;;;;;;41.15;18.80;;;;;;;0.05;83.38;97269.17;1784871;79;21944;-73
2021/01/01 02:12:47;;;;;;;55.30;27.48;;;;;;;-0.03;83.26;97243.68;1784798;80;21638;-73
2021/01/01 02:15:13;;;;;;;58.50;27.93;;;;;;;-0.02;83.33;97274.08;1784785;79;22068;-73
2021/01/01 02:17:39;;;;;;;60.30;28.65;;;;;;;-0.02;83.63;97267.41;1784863;79;21224;-73
2021/01/01 02:20:08;;;;;;;61.85;28.95;;;;;;;0.04;83.76;97268.88;1784802;79;21059;-73
2021/01/01 02:22:38;;;;;;;71.28;33.18;;;;;;;0.07;83.83;97260.42;1785191;80;21110;-73
2021/01/01 02:25:07;;;;;;;65.17;27.82;;;;;;;0.10;83.81;97260.78;1784962;79;21051;-73
2021/01/01 02:27:34;;;;;;;65.85;30.82;;;;;;;0.07;83.66;97263.89;1785093;80;22155;-73
2021/01/01 02:30:00;;;;;;;61.85;29.45;;;;;;;0.05;83.51;97260.66;1784959;79;21178;-73
2021/01/01 02:32:26;;;;;;;58.28;27.15;;;;;;;0.05;83.49;97259.32;1784927;80;21214;-73
2021/01/01 02:34:52;;;;;;;65.30;31.33;;;;;;;0.06;83.51;97259.61;1784948;80;21547;-73
2021/01/01 02:37:19;;;;;;;56.83;27.27;;;;;;;0.10;83.64;97261.31;1754667;80;21062;-72
2021/01/01 02:39:45;;;;;;;60.52;27.75;;;;;;;0.09;83.48;97260.50;1784954;80;21201;-72
2021/01/01 02:42:14;;;;;;;52.33;23.50;;;;;;;0.05;83.40;97259.84;1785003;79;21122;-72
2021/01/01 02:44:41;;;;;;;35.52;14.75;;;;;;;0.06;83.25;97260.94;1730754;80;21182;-73
2021/01/01 02:47:07;;;;;;;58.60;28.02;;;;;;;-0.01;83.16;97256.23;1784986;79;21039;-73
2021/01/01 02:49:33;;;;;;;62.20;29.85;;;;;;;-0.17;83.35;97256.91;1754424;80;21735;-73
2021/01/01 02:52:01;;;;;;;63.35;28.75;;;;;;;-0.21;83.53;97258.42;1754339;80;23546;-73
2021/01/01 02:54:27;;;;;;;55.92;25.35;;;;;;;-0.19;83.58;97263.00;1784814;80;21539;-73
2021/01/01 02:56:53;;;;;;;58.87;28.92;;;;;;;-0.20;83.53;97254.20;1785056;79;21105;-73
2021/01/01 02:59:20;;;;;;;53.23;27.62;;;;;;;-0.24;83.78;97257.56;1784977;80;21233;-74
2021/01/01 03:01:46;;;;;;;49.33;22.00;;;;;;;-0.23;83.80;97253.34;1784881;79;21027;-73
2021/01/01 03:04:16;;;;;;;57.40;27.93;;;;;;;-0.22;83.68;97256.28;1784957;80;22144;-73
2021/01/01 03:06:42;;;;;;;54.67;25.72;;;;;;;-0.22;83.82;97262.13;1755533;80;21117;-71
2021/01/01 03:09:08;;;;;;;52.05;24.35;;;;;;;-0.20;83.82;97266.18;1784914;80;21165;-71
2021/01/01 03:11:35;;;;;;;56.98;28.17;;;;;;;-0.16;83.54;97265.22;1784849;79;21054;-71
2021/01/01 03:14:01;;;;;;;51.45;23.77;;;;;;;-0.16;83.70;97271.36;1784959;80;21456;-71
2021/01/01 03:16:27;;;;;;;47.93;24.00;;;;;;;-0.19;83.58;97269.12;1784958;79;21190;-71
2021/01/01 03:18:53;;;;;;;50.60;26.05;;;;;;;-0.23;83.54;97270.64;1784845;80;21878;-71
2021/01/01 03:21:20;;;;;;;52.13;23.80;;;;;;;-0.25;83.52;97275.39;1784865;79;21208;-71
2021/01/01 03:23:47;;;;;;;55.25;25.12;;;;;;;-0.26;83.26;97275.08;1785007;80;21181;-71
2021/01/01 03:26:13;;;;;;;68.00;33.83;;;;;;;-0.31;83.46;97269.12;1784879;79;21109;-71
2021/01/01 03:28:39;;;;;;;58.33;27.85;;;;;;;-0.29;83.52;97276.88;1784939;80;21658;-71
2021/01/01 03:31:07;;;;;;;53.55;26.80;;;;;;;-0.30;83.50;97272.07;1784780;79;21460;-71
2021/01/01 03:33:34;;;;;;;51.65;26.93;;;;;;;-0.31;83.37;97270.97;1784958;80;21116;-72
2021/01/01 03:36:04;;;;;;;55.05;31.02;;;;;;;-0.33;83.60;97275.72;1784908;79;21670;-72
2021/01/01 03:38:31;;;;;;;52.43;26.90;;;;;;;-0.30;83.76;97280.06;1785016;80;21241;-73
2021/01/01 03:40:57;;;;;;;51.98;27.07;;;;;;;-0.31;83.43;97279.77;1784894;79;21187;-73
2021/01/01 03:43:23;;;;;;;57.85;26.62;;;;;;;-0.34;83.58;97274.91;1784858;80;21611;-73
2021/01/01 03:45:50;;;;;;;56.05;24.77;;;;;;;-0.33;83.41;97278.39;1784952;79;21176;-73
2021/01/01 03:48:16;;;;;;;47.73;21.60;;;;;;;-0.36;83.55;97276.16;1784909;80;21220;-73
2021/01/01 03:50:43;;;;;;;53.68;25.40;;;;;;;-0.43;83.41;97272.26;1784912;79;21110;-73
2021/01/01 03:53:09;;;;;;;51.58;25.40;;;;;;;-0.50;83.61;97279.55;1785010;80;21634;-73
2021/01/01 03:55:35;;;;;;;52.40;23.55;;;;;;;-0.48;83.77;97274.00;1784810;79;21074;-73
2021/01/01 03:58:02;;;;;;;53.20;25.00;;;;;;;-0.47;83.87;97268.97;1784975;80;21172;-73
2021/01/01 04:00:28;;;;;;;60.78;27.67;;;;;;;-0.43;83.87;97274.92;1784724;79;21059;-73
2021/01/01 04:02:55;;;;;;;59.10;24.95;;;;;;;-0.40;83.90;97271.82;1785006;80;21082;-73
2021/01/01 04:05:21;;;;;;;52.73;26.10;;;;;;;-0.41;83.50;97267.54;1784977;79;21317;-73
2021/01/01 04:07:47;;;;;;;68.60;28.77;;;;;;;-0.44;83.76;97269.83;1784820;80;21206;-73
2021/01/01 04:10:14;;;;;;;62.53;29.45;;;;;;;-0.42;83.53;97274.42;1784795;79;21185;-73
2021/01/01 04:12:40;;;;;;;65.70;28.57;;;;;;;-0.50;83.50;97279.55;1754621;80;21209;-73
2021/01/01 04:15:09;;;;;;;61.23;29.05;;;;;;;-0.51;83.54;97274.43;1784787;79;21629;-73
2021/01/01 04:17:35;;;;;;;73.95;34.80;;;;;;;-0.52;83.66;97280.80;1785129;80;21239;-73
2021/01/01 04:20:01;;;;;;;62.10;30.17;;;;;;;-0.56;83.98;97273.80;1784788;79;21614;-73
2021/01/01 04:22:28;;;;;;;44.03;23.42;;;;;;;-0.56;83.87;97276.45;1784850;80;21133;-73
2021/01/01 04:24:54;;;;;;;44.08;23.77;;;;;;;-0.62;83.72;97282.16;1784987;80;21074;-73
2021/01/01 04:27:20;;;;;;;54.80;25.68;;;;;;;-0.66;83.70;97273.53;1784945;79;21097;-73
2021/01/01 04:29:47;;;;;;;50.60;25.80;;;;;;;-0.75;83.75;97279.70;1784868;80;21251;-73
2021/01/01 04:32:13;;;;;;;53.78;24.32;;;;;;;-0.80;83.98;97280.87;1784848;79;21134;-73
2021/01/01 04:34:39;;;;;;;49.58;24.50;;;;;;;-0.85;83.88;97276.77;1784949;80;21188;-73
2021/01/01 04:37:06;;;;;;;51.85;23.05;;;;;;;-0.89;83.91;97276.39;1784783;79;21102;-73
2021/01/01 04:39:32;;;;;;;48.45;24.50;;;;;;;-0.87;84.02;97272.98;1784954;80;21173;-73
2021/01/01 04:42:00;;;;;;;46.70;21.25;;;;;;;-0.88;83.97;97281.19;1784787;79;21185;-73
2021/01/01 04:44:26;;;;;;;47.80;24.67;;;;;;;-0.86;83.82;97279.11;1784835;80;21129;-73
2021/01/01 04:46:52;;;;;;;47.48;24.02;;;;;;;-0.93;83.83;97284.53;1784898;79;21118;-73
2021/01/01 04:49:19;;;;;;;53.13;26.60;;;;;;;-1.00;84.04;97278.48;1784886;80;21189;-73
2021/01/01 04:51:45;;;;;;;47.83;23.38;;;;;;;-1.02;84.05;97282.41;1784924;79;21027;-73
2021/01/01 04:54:11;;;;;;;48.68;27.87;;;;;;;-1.02;83.88;97292.53;1784837;80;21170;-74
2021/01/01 04:56:47;;;;;;;80.60;35.43;;;;;;;-1.04;83.75;97294.58;1784784;79;21043;-73
2021/01/01 04:59:17;;;;;;;82.85;42.88;;;;;;;-1.07;83.88;97295.03;1784861;80;21157;-72
2021/01/01 05:01:44;;;;;;;61.88;33.38;;;;;;;-1.10;83.91;97296.81;1784734;79;21118;-73
2021/01/01 05:04:11;;;;;;;58.20;26.40;;;;;;;-1.09;83.90;97295.78;1784899;80;21618;-73
2021/01/01 05:06:39;;;;;;;52.35;24.95;;;;;;;-1.08;83.90;97304.05;1784855;79;21956;-73
2021/01/01 05:09:06;;;;;;;58.30;29.65;;;;;;;-1.12;83.82;97301.52;1784718;80;21546;-73
2021/01/01 05:11:32;;;;;;;58.48;28.57;;;;;;;-1.13;83.84;97303.89;1784836;79;21130;-73
2021/01/01 05:14:02;;;;;;;67.60;33.70;;;;;;;-1.17;83.87;97304.86;1784815;80;21177;-73
2021/01/01 05:16:28;;;;;;;60.48;31.42;;;;;;;-1.23;83.94;97309.73;1784453;79;21050;-73
2021/01/01 05:18:54;;;;;;;63.45;28.32;;;;;;;-1.24;83.97;97309.95;1784838;79;21665;-73
2021/01/01 05:21:27;;;;;;;59.05;29.27;;;;;;;-1.24;84.07;97309.44;1784810;79;21201;-73
2021/01/01 05:23:55;;;;;;;66.37;31.65;;;;;;;-1.26;83.92;97310.70;1784501;80;21166;-71
2021/01/01 05:26:28;;;;;;;67.83;29.97;;;;;;;-1.27;84.10;97313.88;1785042;79;21551;-71
2021/01/01 05:28:57;;;;;;;61.73;28.67;;;;;;;-1.28;84.07;97310.09;1784813;80;21123;-72
2021/01/01 05:31:29;;;;;;;78.55;43.52;;;;;;;-1.29;83.93;97321.24;1754906;80;21558;-72
2021/01/01 05:34:09;;;;;;;76.82;37.55;;;;;;;-1.34;83.99;97318.97;1784437;80;21129;-72
2021/01/01 05:36:43;;;;;;;57.55;28.67;;;;;;;-1.36;84.23;97322.38;1784890;79;21044;-72
2021/01/01 05:39:22;;;;;;;75.78;31.73;;;;;;;-1.36;84.49;97327.17;1784826;80;21103;-73
2021/01/01 05:41:53;;;;;;;58.20;28.25;;;;;;;-1.33;84.19;97329.89;1784786;79;21170;-72
2021/01/01 05:44:26;;;;;;;63.42;31.00;;;;;;;-1.36;84.04;97331.67;1784778;80;21542;-72
2021/01/01 05:47:07;;;;;;;59.42;27.58;;;;;;;-1.37;84.09;97334.01;1784749;79;21582;-73
2021/01/01 05:49:39;;;;;;;65.30;32.35;;;;;;;-1.39;84.10;97331.58;1784840;80;21130;-73
2021/01/01 05:52:18;;;;;;;61.68;31.27;;;;;;;-1.40;84.09;97340.59;1784869;79;21054;-72
2021/01/01 05:54:47;;;;;;;59.08;26.68;;;;;;;-1.41;84.09;97342.95;1785153;79;21110;-73
2021/01/01 05:57:14;;;;;;;63.28;28.15;;;;;;;-1.44;83.96;97342.88;1784900;79;21515;-73
2021/01/01 05:59:45;;;;;;;45.43;22.77;;;;;;;-1.45;83.97;97345.25;1784805;80;21134;-73
2021/01/01 06:02:11;;;;;;;50.52;24.47;;;;;;;-1.49;84.03;97346.70;1754283;80;21142;-73
2021/01/01 06:04:38;;;;;;;54.23;27.02;;;;;;;-1.53;84.06;97345.53;1784857;80;21177;-73
2021/01/01 06:07:08;;;;;;;60.17;24.98;;;;;;;-1.58;84.14;97348.53;1784756;79;21059;-73
2021/01/01 06:09:35;;;;;;;66.67;33.83;;;;;;;-1.66;84.23;97352.28;1784852;80;21545;-73
2021/01/01 06:12:12;;;;;;;57.03;27.27;;;;;;;-1.70;84.30;97352.43;1784774;79;21150;-73
2021/01/01 06:14:41;;;;;;;55.67;26.05;;;;;;;-1.73;84.45;97348.34;1784841;79;21118;-73
2021/01/01 06:17:17;;;;;;;55.67;24.82;;;;;;;-1.74;84.43;97356.53;1784987;79;21027;-73
2021/01/01 06:19:57;;;;;;;60.08;31.70;;;;;;;-1.80;84.43;97358.20;1784807;79;21138;-72
2021/01/01 06:22:26;;;;;;;51.80;24.60;;;;;;;-1.86;84.49;97357.77;1784823;79;22140;-72
2021/01/01 06:24:57;;;;;;;44.13;20.37;;;;;;;-1.94;84.60;97354.05;1784026;80;21621;-73
2021/01/01 06:27:27;;;;;;;47.62;20.88;;;;;;;-1.94;84.74;97353.23;1784829;79;21090;-72
2021/01/01 06:30:02;;;;;;;55.25;23.07;;;;;;;-2.00;84.59;97350.41;1784883;80;21153;-72
2021/01/01 06:32:32;;;;;;;46.10;23.00;;;;;;;-2.05;85.82;97353.40;1784921;80;21130;-73
2021/01/01 06:35:17;;;;;;;46.02;21.60;;;;;;;-2.00;84.92;97353.58;1784853;80;22085;-72
2021/01/01 06:37:48;;;;;;;45.38;20.70;;;;;;;-1.98;84.74;97352.84;1784706;80;21129;-73
2021/01/01 06:40:26;;;;;;;46.33;22.52;;;;;;;-2.00;84.76;97354.91;1784786;79;21149;-72
2021/01/01 06:43:00;;;;;;;43.50;22.05;;;;;;;-2.03;84.72;97346.86;1784772;80;21634;-73
2021/01/01 06:45:42;;;;;;;45.85;21.65;;;;;;;-2.05;84.67;97353.40;1784868;79;21431;-71
2021/01/01 06:48:24;;;;;;;60.08;26.57;;;;;;;-2.10;84.77;97351.92;1784890;80;21257;-72
2021/01/01 06:50:52;;;;;;;51.88;24.18;;;;;;;-2.10;84.76;97346.61;1784873;79;21104;-73
2021/01/01 06:53:25;;;;;;;60.67;28.45;;;;;;;-2.10;85.21;97350.59;1784704;80;21099;-73
2021/01/01 06:55:52;;;;;;;60.20;28.17;;;;;;;-2.13;84.90;97357.16;1784387;79;21534;-73
2021/01/01 06:58:25;;;;;;;56.63;24.90;;;;;;;-2.14;85.65;97360.81;1784761;80;21673;-73
2021/01/01 07:00:55;;;;;;;231.93;106.50;;;;;;;-2.17;85.19;97356.45;1784803;79;21199;-72
2021/01/01 07:03:31;;;;;;;101.67;45.35;;;;;;;-2.25;87.74;97362.02;1784661;80;21115;-73
2021/01/01 07:06:06;;;;;;;64.60;32.90;;;;;;;-2.23;87.45;97361.29;1785043;79;21042;-72
2021/01/01 07:08:46;;;;;;;66.70;33.75;;;;;;;-2.17;86.14;97365.75;1782148;80;21539;-72
2021/01/01 07:11:27;;;;;;;77.05;40.23;;;;;;;-2.19;86.16;97371.79;1784981;79;21110;-72
2021/01/01 07:13:55;;;;;;;70.92;33.05;;;;;;;-2.19;87.59;97373.13;1784998;80;21204;-72
2021/01/01 07:16:24;;;;;;;66.83;32.00;;;;;;;-2.16;87.68;97372.68;1785038;79;21611;-72
2021/01/01 07:18:52;;;;;;;88.58;36.35;;;;;;;-2.13;87.25;97375.73;1783427;80;21547;-72
2021/01/01 07:21:19;;;;;;;93.35;40.73;;;;;;;-2.08;86.93;97370.58;1784944;79;21164;-72
2021/01/01 07:23:47;;;;;;;85.28;40.52;;;;;;;-2.13;87.46;97379.72;1784904;80;21625;-72
2021/01/01 07:26:13;;;;;;;77.65;38.73;;;;;;;-2.18;87.61;97374.23;1784903;79;21196;-72
2021/01/01 07:28:41;;;;;;;75.80;35.08;;;;;;;-2.21;87.46;97381.81;1754542;80;21229;-72
2021/01/01 07:31:08;;;;;;;75.57;35.00;;;;;;;-2.25;87.45;97377.95;1785235;79;21038;-72
2021/01/01 07:33:34;;;;;;;53.50;26.75;;;;;;;-2.28;87.50;97381.84;1784865;80;21403;-72
2021/01/01 07:36:05;;;;;;;62.53;31.15;;;;;;;-2.22;86.57;97382.33;1784893;79;21534;-73
2021/01/01 07:38:34;;;;;;;74.45;33.10;;;;;;;-2.32;87.20;97385.94;1784895;79;21253;-72
2021/01/01 07:41:00;;;;;;;61.50;25.37;;;;;;;-2.27;86.92;97384.80;1785000;79;21154;-72
2021/01/01 07:43:27;;;;;;;64.27;28.73;;;;;;;-2.21;86.35;97389.27;1784864;80;21042;-72
2021/01/01 07:45:54;;;;;;;66.75;30.90;;;;;;;-2.28;86.02;97385.83;1784937;79;21534;-72
2021/01/01 07:48:21;;;;;;;85.55;45.73;;;;;;;-2.31;86.13;97390.22;1754415;80;21074;-72
2021/01/01 07:50:47;;;;;;;86.78;45.55;;;;;;;-2.27;87.08;97392.77;1784917;79;21459;-72
2021/01/01 07:53:13;;;;;;;93.82;44.20;;;;;;;-2.18;87.00;97386.69;1784770;80;21595;-72
2021/01/01 07:55:41;;;;;;;105.72;54.88;;;;;;;-2.09;86.64;97388.06;1754421;80;21598;-72
2021/01/01 07:58:12;;;;;;;99.22;50.80;;;;;;;-2.05;86.83;97387.91;1784829;80;21035;-72
2021/01/01 08:00:45;;;;;;;85.70;41.42;;;;;;;-2.11;87.63;97388.80;1784924;79;21015;-74
2021/01/01 08:03:13;;;;;;;85.12;49.40;;;;;;;-2.12;87.59;97387.17;1784155;80;21558;-72
2021/01/01 08:05:44;;;;;;;57.07;26.10;;;;;;;-2.06;87.49;97384.96;1785050;79;21374;-72
2021/01/01 08:08:22;;;;;;;62.48;29.18;;;;;;;-1.97;86.50;97388.17;1784946;80;21310;-72
2021/01/01 08:10:52;;;;;;;63.55;28.95;;;;;;;-2.03;86.51;97384.03;1785017;79;21043;-73
2021/01/01 08:13:27;;;;;;;64.67;30.68;;;;;;;-2.05;87.71;97391.41;1784721;80;21050;-73
2021/01/01 08:15:56;;;;;;;65.42;29.92;;;;;;;-2.02;87.96;97391.48;1784928;79;21122;-73
2021/01/01 08:18:25;;;;;;;73.85;31.45;;;;;;;-1.95;87.74;97390.12;1784950;79;21121;-73
2021/01/01 08:21:19;;;;;;;57.55;26.95;;;;;;;-1.86;87.17;97392.81;1784957;79;21579;-72
2021/01/01 08:23:56;;;;;;;153.00;73.92;;;;;;;-1.79;86.54;97390.41;1767139;81;21145;-71
2021/01/01 08:26:22;;;;;;;77.90;36.30;;;;;;;-1.83;87.17;97390.52;1784731;79;21140;-72
2021/01/01 08:28:51;;;;;;;73.50;37.55;;;;;;;-1.73;87.52;97394.02;1798566;79;21298;-72
2021/01/01 08:31:20;;;;;;;73.02;39.48;;;;;;;-1.66;87.57;97400.10;1798435;78;21479;-72
2021/01/01 08:33:47;;;;;;;66.22;30.60;;;;;;;-1.61;87.27;97395.48;1798658;79;21583;-72
2021/01/01 08:36:13;;;;;;;65.35;32.95;;;;;;;-1.52;86.67;97396.83;1769375;79;21124;-72
2021/01/01 08:38:42;;;;;;;79.42;39.75;;;;;;;-1.51;86.71;97400.59;1798560;79;21172;-72
2021/01/01 08:41:16;;;;;;;77.60;40.55;;;;;;;-1.43;86.52;97402.16;1798561;78;21553;-72
2021/01/01 08:43:55;;;;;;;76.87;43.98;;;;;;;-1.32;86.08;97396.13;1922671;74;22696;-71
2021/01/01 08:46:21;;;;;;;90.20;47.35;;;;;;;-1.29;86.06;97405.50;1836127;78;21328;-72
2021/01/01 08:48:48;;;;;;;87.62;49.25;;;;;;;-1.31;86.06;97400.92;1835280;78;21237;-72
2021/01/01 08:51:14;;;;;;;80.53;39.42;;;;;;;-1.23;85.95;97398.80;1800581;79;21542;-72
2021/01/01 08:53:41;;;;;;;79.37;42.67;;;;;;;-1.17;85.57;97399.25;1802358;78;21486;-72
2021/01/01 08:56:08;;;;;;;70.60;39.08;;;;;;;-1.22;85.92;97395.09;1800661;79;21112;-72
2021/01/01 08:58:35;;;;;;;65.50;33.85;;;;;;;-1.15;85.96;97397.70;1802344;79;21104;-72
2021/01/01 09:01:17;;;;;;;76.53;38.28;;;;;;;-1.05;85.63;97396.67;1858295;77;21712;-72
2021/01/01 09:03:43;;;;;;;80.95;39.92;;;;;;;-1.03;85.41;97399.91;1800513;78;21596;-73
2021/01/01 09:06:19;;;;;;;101.87;50.17;;;;;;;-0.93;85.27;97398.09;1802394;79;21053;-73
2021/01/01 09:08:46;;;;;;;92.75;44.53;;;;;;;-0.88;85.06;97403.03;1800629;78;21097;-73
2021/01/01 09:11:21;;;;;;;96.17;46.75;;;;;;;-0.79;84.81;97398.23;1802265;78;21478;-73
2021/01/01 09:14:01;;;;;;;93.62;44.42;;;;;;;-0.72;84.64;97404.28;1858228;77;21248;-73
2021/01/01 09:16:28;;;;;;;83.10;39.48;;;;;;;-0.71;84.29;97399.78;1800647;79;21110;-72
2021/01/01 09:18:54;;;;;;;96.15;50.10;;;;;;;-0.61;84.07;97405.38;1800591;78;21636;-73
2021/01/01 09:21:20;;;;;;;84.60;39.27;;;;;;;-0.51;83.99;97411.50;1800633;79;21055;-72
2021/01/01 09:23:52;;;;;;;67.08;32.03;;;;;;;-0.42;84.24;97411.00;1800590;78;21113;-72
2021/01/01 09:26:30;;;;;;;62.30;32.50;;;;;;;-0.33;84.05;97410.17;1800695;79;21495;-72
2021/01/01 09:29:05;;;;;;;77.82;41.37;;;;;;;-0.34;84.06;97416.54;1802369;79;21433;-73
2021/01/01 09:31:33;;;;;;;71.22;36.23;;;;;;;-0.31;84.07;97416.08;1800727;79;21034;-71
2021/01/01 09:34:07;;;;;;;64.65;33.95;;;;;;;-0.21;84.38;97407.03;1858176;77;21123;-71
2021/01/01 09:36:36;;;;;;;67.42;34.63;;;;;;;-0.14;84.00;97404.28;1800637;79;21569;-73
2021/01/01 09:39:06;;;;;;;70.03;37.67;;;;;;;-0.11;84.07;97405.15;1799619;79;22973;-72
2021/01/01 09:41:36;;;;;;;68.25;35.85;;;;;;;0.00;84.07;97407.06;1802213;78;21486;-72
2021/01/01 09:44:03;;;;;;;57.43;32.28;;;;;;;0.10;84.02;97408.65;1858264;77;21051;-72
2021/01/01 09:46:29;;;;;;;49.55;25.50;;;;;;;0.17;83.00;97404.04;1800615;79;21030;-73
2021/01/01 09:48:55;;;;;;;47.15;23.85;;;;;;;0.32;83.59;97398.78;1800689;78;21130;-73
2021/01/01 09:51:22;;;;;;;67.25;31.95;;;;;;;0.44;83.52;97395.63;1800604;79;21458;-73
2021/01/01 09:53:48;;;;;;;112.55;39.38;;;;;;;0.58;83.24;97393.53;1800311;78;21550;-72
2021/01/01 09:56:15;;;;;;;163.97;52.75;;;;;;;0.76;82.50;97398.23;1801791;79;21148;-72
2021/01/01 09:58:41;;;;;;;557.38;172.60;;;;;;;0.98;82.18;97391.80;1857621;77;21001;-73
2021/01/01 10:01:07;;;;;;;97.10;46.85;;;;;;;1.13;82.20;97393.47;1800033;79;21105;-73
2021/01/01 10:03:34;;;;;;;119.22;57.78;;;;;;;1.22;79.87;97387.25;1800032;79;22098;-73
2021/01/01 10:06:00;;;;;;;61.73;37.15;;;;;;;1.29;80.95;97394.61;1799978;79;21061;-73
2021/01/01 10:08:26;;;;;;;46.25;26.05;;;;;;;1.33;80.02;97389.08;1800074;78;21114;-73
2021/01/01 10:10:53;;;;;;;69.77;43.92;;;;;;;1.41;81.28;97397.24;1800002;79;21054;-73
2021/01/01 10:13:19;;;;;;;55.60;27.77;;;;;;;1.45;81.02;97389.03;1800062;78;21050;-73
2021/01/01 10:15:45;;;;;;;56.37;26.10;;;;;;;1.50;80.47;97386.47;1801740;79;21593;-73
2021/01/01 10:18:11;;;;;;;44.48;26.23;;;;;;;1.56;80.63;97388.20;1857544;77;21010;-73
2021/01/01 10:20:38;;;;;;;50.15;30.25;;;;;;;1.62;80.99;97381.92;1800025;79;21082;-73
2021/01/01 10:23:04;;;;;;;45.67;23.92;;;;;;;1.68;80.87;97376.14;1799900;78;21573;-73
2021/01/01 10:25:30;;;;;;;44.38;25.70;;;;;;;1.72;79.08;97382.64;1799924;79;21054;-73
2021/01/01 10:27:57;;;;;;;47.73;22.93;;;;;;;1.80;79.06;97370.23;1768568;79;23026;-73
2021/01/01 10:30:23;;;;;;;41.50;22.42;;;;;;;1.87;79.88;97370.87;1800043;79;21197;-73
2021/01/01 10:32:50;;;;;;;46.77;22.90;;;;;;;1.97;80.15;97368.94;1800000;78;21470;-74
2021/01/01 10:35:16;;;;;;;43.78;22.85;;;;;;;2.05;80.17;97369.05;1800009;79;21184;-74
2021/01/01 10:37:42;;;;;;;44.83;22.85;;;;;;;2.13;79.45;97360.63;1800079;78;21057;-73
2021/01/01 10:40:10;;;;;;;66.80;31.93;;;;;;;2.20;79.19;97352.75;1799942;79;21189;-73
2021/01/01 10:42:36;;;;;;;57.67;26.62;;;;;;;2.36;79.18;97352.48;1799769;78;21484;-73
2021/01/01 10:45:03;;;;;;;43.55;22.60;;;;;;;2.54;78.53;97348.74;1857515;77;21930;-73
2021/01/01 10:47:29;;;;;;;79.75;34.20;;;;;;;2.67;78.02;97346.27;1799964;78;21058;-73
2021/01/01 10:49:55;;;;;;;67.92;31.82;;;;;;;2.74;78.80;97339.70;1800110;79;21075;-73
2021/01/01 10:52:22;;;;;;;243.95;85.87;;;;;;;2.84;78.76;97344.38;1799898;78;21613;-73
2021/01/01 10:54:48;;;;;;;108.10;58.50;;;;;;;2.91;78.38;97346.36;1799899;79;21654;-73
2021/01/01 10:57:14;;;;;;;162.60;70.60;;;;;;;3.00;78.24;97342.73;1799944;78;21570;-71
2021/01/01 10:59:41;;;;;;;188.07;58.68;;;;;;;3.10;76.56;97340.98;1799940;79;21589;-71
2021/01/01 11:02:07;;;;;;;105.10;66.50;;;;;;;3.18;76.86;97334.92;1799839;78;21188;-71
2021/01/01 11:04:33;;;;;;;241.93;83.25;;;;;;;3.28;75.65;97329.69;1801652;79;21475;-71
2021/01/01 11:07:00;;;;;;;82.67;35.17;;;;;;;3.35;76.27;97330.31;1801396;78;21029;-71
2021/01/01 11:09:26;;;;;;;69.25;35.28;;;;;;;3.44;75.42;97321.31;1834474;78;21181;-71
2021/01/01 11:11:57;;;;;;;78.15;31.60;;;;;;;3.46;75.04;97319.98;1834473;78;21574;-71
2021/01/01 12:21:04;;;;;;;43.23;24.02;;;;;;;4.35;73.45;97314.12;1800535;79;21119;-72
2021/01/01 12:26:03;;;;;;;73.07;39.60;;;;;;;4.34;73.84;97315.72;1800334;79;21142;-72
2021/01/01 12:28:29;;;;;;;74.35;38.53;;;;;;;4.39;74.28;97322.48;1766933;79;21209;-72
2021/01/01 12:30:56;;;;;;;66.40;32.85;;;;;;;4.43;74.21;97329.74;1800362;79;21126;-72
2021/01/01 12:33:23;;;;;;;64.97;33.75;;;;;;;4.46;74.57;97327.91;1800283;79;21811;-72
2021/01/01 12:35:49;;;;;;;60.00;31.48;;;;;;;4.47;74.58;97325.50;1800290;79;21110;-71